Latest Coastal Weather Observations for Albion Park

IDN60701

Issued at 10:25 pm EST Monday 21 April 2014 (issued every 10 minutes, with the page automatically refreshed every 10 minutes)

About coastal observations | Map of coastal stations | Coastal observations for NSW | Marine services | Other Formats
Station Details ID: 068241 Name: WOLLONGONG AIRPORT Lat: -34.56 Lon: 150.79 Height: 8.0 m
Data from the previous 72 hours. | See also: Recent months at Albion Park
Date/Time
EST
Temp

°C
Wind Pressure Rain
since 9am
mm
Weather Cloud Vis
km
Sea
Height
m
Swell
Dir
 
Speed
knots
Gust
knots
hPa Trend Height
m
Period
s
Dir
21/10:00pm 12.9 W 1 3 1020.3 - 0.0 - - 10 - - - -
21/09:30pm 12.9 W 4 5 1020.4 - 0.0 - - 10 - - - -
21/09:00pm 13.4 W 3 5 1020.1 - 0.0 - - 10 - - - -
21/08:30pm 13.9 NW 4 5 1020.1 - 0.0 - - 10 - - - -
21/08:00pm 14.5 WNW 6 6 1020.1 - 0.0 - - 10 - - - -
21/07:30pm 14.3 W 4 5 1020.0 - 0.0 - - 10 - - - -
21/07:00pm 14.8 W 5 6 1019.9 - 0.0 - - 10 - - - -
21/06:30pm 15.8 WNW 4 4 1019.6 - 0.0 - - 10 - - - -
21/06:00pm 17.5 SW 3 4 1019.3 - 0.0 - - 10 - - - -
21/05:30pm 19.1 SE 3 5 1018.9 - 0.0 - - 10 - - - -
21/05:00pm 20.0 S 5 7 1018.6 - 0.0 - - 10 - - - -
21/04:30pm 20.8 S 5 6 1018.7 - 0.0 - - 10 - - - -
21/04:00pm 21.9 ESE 7 10 1018.6 - 0.0 - - 10 - - - -
21/03:30pm 22.3 ESE 6 9 1018.5 - 0.0 - - 10 - - - -
21/03:00pm 22.6 E 7 10 1018.6 - 0.0 - - 10 - - - -
21/02:30pm 22.9 ENE 7 11 1018.5 - 0.0 - Partly cloudy 10 - - - -
21/02:00pm 23.2 N 7 9 1018.5 - 0.0 - - 10 - - - -
21/01:30pm 23.0 NE 5 8 1018.6 - 0.0 - Partly cloudy 10 - - - -
21/01:00pm 23.1 E 6 7 1018.8 - 0.0 - Partly cloudy 10 - - - -
21/12:30pm 22.8 NE 6 8 1019.1 - 0.0 - - 10 - - - -
21/12:00pm 23.2 ENE 6 8 1019.5 - 0.0 - - 10 - - - -
21/11:30am 23.0 NE 5 7 1019.9 - 0.0 - - 10 - - - -
21/11:00am 22.8 N 4 7 1020.1 - 0.0 - - 10 - - - -
21/10:30am 22.4 N 4 6 1020.3 - 0.0 - - 10 - - - -
21/10:00am 21.4 NW 3 5 1020.5 - 0.0 - - 10 - - - -
21/09:30am 20.3 NW 2 4 1020.6 - 0.0 - - 10 - - - -
21/09:00am 18.8 N 3 4 1020.6 - 0.0 - - 10 - - - -
21/08:30am 17.7 NNW 2 4 1020.5 - 0.0 - - 10 - - - -
21/08:00am 15.5 WSW 4 6 1020.4 - 0.0 - - 10 - - - -
21/07:30am 12.3 CALM 0 0 1020.2 - 0.0 - - 10 - - - -
21/07:00am 9.6 W 3 4 1019.9 - 0.0 - - 10 - - - -
21/06:30am 8.7 WSW 3 4 1019.5 - 0.0 - - 10 - - - -
21/06:00am 9.0 WSW 2 4 1019.3 - 0.0 - - 10 - - - -
21/05:30am 9.5 W 3 4 1019.1 - 0.0 - Partly cloudy 10 - - - -
21/05:00am 9.4 WSW 4 5 1018.8 - 0.0 - Partly cloudy 10 - - - -
21/04:30am 10.0 S 3 5 1018.4 - 0.0 - Partly cloudy 10 - - - -
21/04:00am 11.5 SW 4 6 1018.1 - 0.0 - - 10 - - - -
21/03:30am 12.5 WSW 5 6 1017.8 - 0.0 - - 10 - - - -
21/03:00am 12.2 W 4 6 1017.8 - 0.0 - - 10 - - - -
21/02:30am 14.0 W 7 11 1017.8 - 0.0 - - 10 - - - -
21/02:00am 14.5 W 12 17 1017.8 - 0.0 - - 10 - - - -
21/01:30am 14.7 W 14 18 1017.9 - 0.0 - Partly cloudy 10 - - - -
21/01:00am 15.0 W 13 18 1018.1 - 0.0 - Partly cloudy 10 - - - -
21/12:30am 15.1 WSW 14 21 1018.0 - 0.0 - - 10 - - - -
21/12:00am 15.0 W 14 18 1017.8 - 0.0 - - 10 - - - -
 
Date/Time
EST
Temp

°C
Wind Pressure Rain
since 9am
mm
Weather Cloud Vis
km
Sea
Height
m
Swell
Dir
 
Speed
knots
Gust
knots
hPa Trend Height
m
Period
s
Dir
20/11:30pm 15.3 W 15 21 1017.8 - 0.0 - - 10 - - - -
20/11:00pm 15.3 W 15 20 1017.8 - 0.0 - Partly cloudy 10 - - - -
20/10:30pm 15.7 W 13 18 1018.0 - 0.0 - Partly cloudy 10 - - - -
20/10:00pm 15.9 W 12 16 1018.1 - 0.0 - Partly cloudy 10 - - - -
20/09:30pm 16.0 W 10 13 1017.9 - 0.0 - Partly cloudy 10 - - - -
20/09:00pm 15.7 W 9 11 1017.6 - 0.0 - Mostly clear 10 - - - -
20/08:30pm 15.4 W 8 11 1017.3 - 0.0 - Partly cloudy 10 - - - -
20/08:00pm 15.0 WNW 7 8 1017.1 - 0.0 - - 10 - - - -
20/07:30pm 14.9 W 9 11 1016.7 - 0.0 - - 10 - - - -
20/07:00pm 15.3 W 7 9 1016.4 - 0.0 - Partly cloudy 10 - - - -
20/06:30pm 15.8 WSW 4 6 1016.0 - 0.0 - - 10 - - - -
20/06:00pm 16.4 W 6 7 1015.7 - 0.0 - Mostly clear 10 - - - -
20/05:30pm 19.9 NNE 5 7 1015.2 - 0.0 - Partly cloudy 10 - - - -
20/05:00pm 20.6 ENE 7 10 1014.7 - 0.0 - - 10 - - - -
20/04:30pm 21.1 ENE 9 11 1014.5 - 0.0 - - 10 - - - -
20/04:00pm 21.5 E 9 11 1014.4 - 0.0 - - 10 - - - -
20/03:30pm 21.6 ENE 10 13 1014.4 - 0.0 - - 10 - - - -
20/03:00pm 21.6 ENE 11 13 1014.5 - 0.0 - - 10 - - - -
20/02:30pm 22.0 ENE 11 14 1014.4 - 0.0 - - 10 - - - -
20/02:00pm 21.6 ENE 9 14 1014.5 - 0.0 - - 10 - - - -
20/01:30pm 22.0 ENE 11 16 1014.5 - 0.0 - - 10 - - - -
20/01:00pm 23.2 N 8 13 1014.8 - 0.0 - - 10 - - - -
20/12:30pm 22.6 N 11 17 1015.3 - 0.0 - Partly cloudy 10 - - - -
20/12:00pm 22.2 ENE 10 16 1015.7 - 0.0 - Mostly clear 10 - - - -
20/11:30am 22.1 N 11 14 1016.5 - 0.0 - Partly cloudy 10 - - - -
20/11:00am 20.9 ENE 8 10 1017.0 - 0.0 - - 10 - - - -
20/10:30am 20.4 ENE 6 8 1017.5 - 0.0 - - 10 - - - -
20/10:00am 20.2 E 5 7 1017.7 - 0.0 - - 10 - - - -
20/09:30am 19.4 CALM 0 0 1018.0 - 0.0 - - 10 - - - -
20/09:00am 17.5 CALM 0 0 1018.2 - 0.0 - - 10 - - - -
20/08:30am 14.2 CALM 0 0 1018.3 - 0.0 - - 10 - - - -
20/08:00am 11.6 CALM 0 0 1018.0 - 0.0 - Partly cloudy 10 - - - -
20/07:30am 9.8 WSW 3 4 1018.0 - 0.0 - Partly cloudy 10 - - - -
20/07:00am 7.5 WSW 3 4 1017.7 - 0.0 - Partly cloudy 10 - - - -
20/06:30am 7.0 WSW 3 3 1017.4 - 0.0 - Partly cloudy 10 - - - -
20/06:00am 6.9 WSW 2 4 1017.2 - 0.0 - - 10 - - - -
20/05:30am 7.1 CALM 0 0 1017.0 - 0.0 - - 10 - - - -
20/05:00am 7.1 CALM 0 0 1016.7 - 0.0 - - 10 - - - -
20/04:30am 7.7 CALM 0 0 1016.7 - 0.0 - - 10 - - - -
20/04:00am 8.1 W 3 4 1016.6 - 0.0 - - 10 - - - -
20/03:30am 8.5 W 3 6 1016.7 - 0.0 - - 10 - - - -
20/03:00am 8.0 W 5 7 1016.9 - 0.0 - - 10 - - - -
20/02:30am 8.1 W 3 3 1017.0 - 0.0 - - 10 - - - -
20/02:00am 8.4 CALM 0 0 1017.3 - 0.0 - - 10 - - - -
20/01:30am 8.7 CALM 0 0 1017.6 - 0.0 - - 10 - - - -
20/01:00am 9.2 CALM 0 0 1017.9 - 0.0 - - 10 - - - -
20/12:30am 9.3 W 5 7 1018.1 - 0.0 - - 10 - - - -
20/12:00am 9.2 W 4 7 1018.1 - 0.0 - - 10 - - - -
 
Date/Time
EST
Temp

°C
Wind Pressure Rain
since 9am
mm
Weather Cloud Vis
km
Sea
Height
m
Swell
Dir
 
Speed
knots
Gust
knots
hPa Trend Height
m
Period
s
Dir
19/11:30pm 10.0 W 4 6 1018.1 - 0.0 - - 10 - - - -
19/11:00pm 10.9 W 9 11 1018.1 - 0.0 - - 10 - - - -
19/10:30pm 10.7 W 8 9 1018.1 - 0.0 - - 10 - - - -
19/10:00pm 11.5 W 9 11 1018.3 - 0.0 - - 10 - - - -
19/09:30pm 11.3 W 7 9 1018.3 - 0.0 - - 10 - - - -
19/09:00pm 11.2 W 6 7 1018.2 - 0.0 - - 10 - - - -
19/08:30pm 11.9 W 7 9 1018.0 - 0.0 - - 10 - - - -
19/08:00pm 12.0 W 6 7 1017.8 - 0.0 - - 10 - - - -
19/07:30pm 11.7 W 4 6 1017.6 - 0.0 - - 10 - - - -
19/07:00pm 11.6 W 6 7 1017.3 - 0.0 - - 10 - - - -
19/06:30pm 12.7 W 5 7 1016.8 - 0.0 - - 10 - - - -
19/06:00pm 14.6 WSW 4 5 1016.4 - 0.0 - - 10 - - - -
19/05:30pm 16.4 SSE 4 5 1016.1 - 0.0 - - 10 - - - -
19/05:00pm 17.6 S 7 11 1015.9 - 0.0 - - 10 - - - -
19/04:30pm 18.3 S 7 12 1015.6 - 0.0 - - 10 - - - -
19/04:00pm 18.8 S 9 13 1015.4 - 0.0 - - 10 - - - -
19/03:30pm 19.2 SSE 10 15 1015.2 - 0.0 - - 10 - - - -
19/03:00pm 19.3 S 10 19 1015.1 - 0.0 - - 10 - - - -
19/02:30pm 19.5 S 12 17 1014.9 - 0.0 - - 10 - - - -
19/02:00pm 20.0 S 10 15 1015.0 - 0.0 - - 10 - - - -
19/01:30pm 19.5 S 11 15 1015.1 - 0.0 - - 10 - - - -
19/01:00pm 19.7 S 12 18 1015.3 - 0.0 - - 10 - - - -
19/12:30pm 19.4 S 11 17 1015.7 - 0.0 - Partly cloudy 10 - - - -
19/12:00pm 19.6 SSW 12 17 1016.1 - 0.0 - - 10 - - - -
19/11:30am 19.7 SSW 12 18 1016.3 - 0.0 - - 10 - - - -
19/11:00am 19.1 S 12 16 1016.8 - 0.0 - Partly cloudy 10 - - - -
19/10:30am 19.4 S 11 15 1017.0 - 0.0 - - 10 - - - -
19/10:00am 19.0 SSW 11 16 1017.1 - 0.0 - Partly cloudy 10 - - - -
19/09:30am 17.7 SW 11 14 1017.1 - 0.0 - - 10 - - - -
19/09:00am 17.1 SSW 8 11 1017.2 - 0.0 - Cloudy 10 - - - -
19/08:30am 17.8 SW 6 10 1017.2 - 0.0 - Partly cloudy 10 - - - -
19/08:00am 16.3 WSW 5 8 1017.1 - 0.0 - Partly cloudy 10 - - - -
19/07:30am 14.8 NW 4 6 1016.8 - 0.0 - Partly cloudy 10 - - - -
19/07:00am 13.7 W 6 8 1016.5 - 0.0 - Partly cloudy 10 - - - -
19/06:30am 12.5 W 6 8 1016.1 - 0.0 - - 10 - - - -
19/06:00am 12.7 W 7 9 1015.8 - 0.0 - Mostly clear 10 - - - -
19/05:30am 13.0 W 6 9 1015.7 - 0.0 - Partly cloudy 10 - - - -
19/05:00am 13.5 W 7 9 1015.4 - 0.0 - - 10 - - - -
19/04:30am 13.5 W 5 6 1015.3 - 0.0 - - 10 - - - -
19/04:00am 14.2 WSW 5 7 1015.0 - 0.0 - - 10 - - - -
19/03:30am 15.7 SW 6 7 1014.9 - 0.0 - - 10 - - - -
19/03:00am 16.7 SSW 5 8 1014.9 - 0.0 - Cloudy 10 - - - -
19/02:30am 17.5 SW 8 11 1014.8 - 0.0 - Partly cloudy 10 - - - -
19/02:00am 17.3 SW 5 9 1014.9 - 0.0 - Partly cloudy 10 - - - -
19/01:30am 17.5 S 5 7 1014.7 - 0.0 - Partly cloudy 10 - - - -
19/01:00am 17.9 S 8 11 1014.6 - 0.0 - Cloudy 10 - - - -
19/12:30am 18.7 SSW 10 14 1014.4 - 0.0 - Cloudy 10 - - - -
19/12:00am 19.2 SSW 13 18 1014.2 - 0.0 - Cloudy 10 - - - -
 
Date/Time
EST
Temp

°C
Wind Pressure Rain
since 9am
mm
Weather Cloud Vis
km
Sea
Height
m
Swell
Dir
 
Speed
knots
Gust
knots
hPa Trend Height
m
Period
s
Dir
18/11:30pm 18.0 WSW 9 11 1014.0 - 0.0 - Partly cloudy 10 - - - -
18/11:00pm 17.4 W 11 13 1013.4 - 0.0 - - 10 - - - -
18/10:30pm 17.6 W 11 15 1013.4 - 0.0 - - 10 - - - -

Other Formats:

Comma delimited format used in spreadsheet applications
http://www.bom.gov.au/fwo/IDN60701/IDN60701.95748.axf

JavaScript Object Notation format (JSON) in row-major order
http://www.bom.gov.au/fwo/IDN60701/IDN60701.95748.json